Time;durP1;ratioP1;P1;durP2;ratioP2;P2;SDS_P1;SDS_P2;PMS_P1;PMS_P2;Temp;Humidity;BMP_temperature;BMP_pressure;BME280_temperature;BME280_humidity;BME280_pressure;Samples;Min_cycle;Max_cycle;Signal;HPM_P1;HPM_P2
2021/04/08 00:01:16;;;;;;;11.40;3.90;;;;;;;0.65;74.99;98693.92;117207;1214;22830;-64
2021/04/08 00:03:44;;;;;;;8.80;4.30;;;;;;;0.62;74.95;98697.02;117127;1209;22841;-64
2021/04/08 00:06:12;;;;;;;7.85;4.25;;;;;;;0.61;75.46;98695.38;117211;1209;22859;-64
2021/04/08 00:08:39;;;;;;;8.57;3.97;;;;;;;0.64;75.06;98686.09;117033;1209;22865;-64
2021/04/08 00:11:07;;;;;;;7.57;3.70;;;;;;;0.63;75.19;98698.66;117221;1209;22787;-64
2021/04/08 00:13:51;;;;;;;7.60;4.10;;;;;;;0.64;75.41;98697.63;117096;1209;22931;-65
2021/04/08 00:16:18;;;;;;;7.30;4.20;;;;;;;0.64;75.70;98697.63;117234;1209;22833;-64
2021/04/08 00:18:47;;;;;;;6.80;4.05;;;;;;;0.66;75.16;98705.46;117143;1209;22908;-65
2021/04/08 00:21:15;;;;;;;13.60;4.80;;;;;;;0.65;74.71;98710.00;117212;1214;22882;-64
2021/04/08 00:23:44;;;;;;;11.03;4.60;;;;;;;0.64;75.40;98715.57;117088;1209;22843;-64
2021/04/08 00:26:11;;;;;;;8.25;4.40;;;;;;;0.63;74.53;98712.07;117210;1209;23511;-64
2021/04/08 00:28:39;;;;;;;9.63;5.03;;;;;;;0.64;75.53;98727.12;117064;1209;22896;-64
2021/04/08 00:31:06;;;;;;;8.50;5.17;;;;;;;0.64;75.04;98728.97;117231;1209;23069;-64
2021/04/08 00:33:34;;;;;;;10.43;3.97;;;;;;;0.64;75.26;98723.61;117116;1207;22899;-64
2021/04/08 00:36:01;;;;;;;7.37;4.00;;;;;;;0.62;74.89;98728.36;117156;1209;22968;-65
2021/04/08 00:38:29;;;;;;;9.10;5.20;;;;;;;0.60;74.95;98727.75;117096;1209;23300;-64
2021/04/08 00:40:56;;;;;;;6.50;4.00;;;;;;;0.60;75.13;98727.75;117179;1209;23111;-64
2021/04/08 00:43:24;;;;;;;6.03;4.13;;;;;;;0.60;74.59;98731.25;117124;1209;22851;-64
2021/04/08 00:45:51;;;;;;;7.90;4.77;;;;;;;0.59;74.99;98739.50;116144;1215;26040;-58
2021/04/08 00:48:19;;;;;;;10.80;4.20;;;;;;;0.57;74.77;98742.42;113497;1209;23221;-57
2021/04/08 00:50:47;;;;;;;13.50;4.60;;;;;;;0.57;74.63;98745.10;113396;1209;23218;-56
2021/04/08 00:53:16;;;;;;;9.33;5.17;;;;;;;0.57;75.02;98742.42;113052;1214;25560;-56
2021/04/08 00:55:45;;;;;;;11.13;5.87;;;;;;;0.56;74.78;98748.81;117141;1209;22893;-59
2021/04/08 00:58:13;;;;;;;13.65;6.30;;;;;;;0.54;74.35;98755.42;117200;1209;22867;-59
2021/04/08 01:00:43;;;;;;;12.90;6.30;;;;;;;0.53;74.92;98753.77;117072;1209;23829;-61
2021/04/08 01:03:11;;;;;;;13.00;6.70;;;;;;;0.53;74.87;98756.45;117243;1209;22821;-60
2021/04/08 01:05:38;;;;;;;15.00;7.50;;;;;;;0.52;74.51;98762.84;117080;1209;22816;-61
2021/04/08 01:08:07;;;;;;;14.70;6.30;;;;;;;0.50;75.23;98763.05;117216;1207;22914;-60
2021/04/08 01:10:34;;;;;;;16.50;6.93;;;;;;;0.50;74.77;98765.73;117125;1209;22894;-61
2021/04/08 01:13:06;;;;;;;11.67;6.17;;;;;;;0.51;74.83;98766.55;117159;1209;22907;-60
2021/04/08 01:15:34;;;;;;;11.23;5.90;;;;;;;0.50;74.76;98759.55;117133;1209;22981;-60
2021/04/08 01:18:02;;;;;;;16.13;6.77;;;;;;;0.50;74.48;98771.09;117161;1209;22988;-60
2021/04/08 01:20:36;;;;;;;13.35;6.95;;;;;;;0.49;74.46;98765.94;117116;1209;22934;-60
2021/04/08 01:23:16;;;;;;;11.80;6.30;;;;;;;0.48;74.21;98767.80;117229;1209;22986;-59
2021/04/08 01:26:10;;;;;;;12.67;6.30;;;;;;;0.46;74.82;98777.08;117131;1209;22873;-59
2021/04/08 01:28:48;;;;;;;11.20;5.40;;;;;;;0.48;74.86;98777.69;117221;1209;22852;-60
2021/04/08 01:31:16;;;;;;;11.43;5.40;;;;;;;0.47;74.29;98778.72;117174;1209;22803;-60
2021/04/08 01:33:46;;;;;;;15.50;5.55;;;;;;;0.46;74.79;98777.91;117236;1209;23693;-60
2021/04/08 01:36:21;;;;;;;10.93;4.70;;;;;;;0.46;74.33;98787.80;117128;1209;22848;-60
2021/04/08 01:38:49;;;;;;;17.90;6.10;;;;;;;0.46;74.65;98785.12;117238;1209;22870;-58
2021/04/08 01:41:19;;;;;;;8.73;5.10;;;;;;;0.44;74.86;98790.68;117069;1209;22970;-58
2021/04/08 01:43:47;;;;;;;11.20;5.80;;;;;;;0.44;74.28;98787.17;117223;1209;22817;-59
2021/04/08 01:46:15;;;;;;;11.77;6.17;;;;;;;0.43;74.51;98791.75;115448;1215;23414;-60
2021/04/08 01:48:44;;;;;;;11.50;6.40;;;;;;;0.42;74.01;98795.45;117070;1209;23069;-59
2021/04/08 01:51:13;;;;;;;11.93;6.37;;;;;;;0.40;75.02;98799.38;117076;1209;22957;-58
2021/04/08 01:53:46;;;;;;;8.53;5.33;;;;;;;0.39;74.01;98803.91;117163;1209;22959;-59
2021/04/08 01:56:16;;;;;;;10.80;5.60;;;;;;;0.38;74.38;98807.63;117097;1209;23172;-58
2021/04/08 01:58:47;;;;;;;11.17;6.00;;;;;;;0.40;75.03;98820.81;117221;1209;22920;-59
2021/04/08 02:01:18;;;;;;;10.17;5.97;;;;;;;0.39;74.57;98819.98;117108;1209;22848;-59
2021/04/08 02:03:49;;;;;;;10.40;5.20;;;;;;;0.37;74.59;98829.27;117181;1209;22805;-58
2021/04/08 02:06:17;;;;;;;9.30;5.10;;;;;;;0.36;74.01;98828.44;117178;1209;22848;-58
2021/04/08 02:08:46;;;;;;;11.97;6.57;;;;;;;0.36;74.25;98833.80;117162;1209;26759;-58
2021/04/08 02:11:16;;;;;;;10.43;5.63;;;;;;;0.33;74.16;98840.39;117197;1209;22825;-58
2021/04/08 02:13:45;;;;;;;8.63;5.60;;;;;;;0.32;74.12;98844.09;117040;1211;22995;-58
2021/04/08 02:16:13;;;;;;;11.05;5.85;;;;;;;0.31;74.83;98853.17;116956;1211;22973;-58
2021/04/08 02:18:41;;;;;;;13.70;6.97;;;;;;;0.32;74.55;98853.99;117070;1211;22902;-58
2021/04/08 02:21:09;;;;;;;13.40;7.07;;;;;;;0.31;73.95;98850.48;117172;1212;22858;-59
2021/04/08 02:23:40;;;;;;;11.80;6.85;;;;;;;0.29;74.50;98859.76;117040;1211;22995;-58
2021/04/08 02:26:10;;;;;;;14.50;7.17;;;;;;;0.29;74.38;98862.44;117141;1212;22920;-58
2021/04/08 02:28:38;;;;;;;12.87;7.10;;;;;;;0.26;74.65;98869.06;117075;1211;23032;-57
2021/04/08 02:31:05;;;;;;;12.00;7.75;;;;;;;0.25;74.03;98856.70;117213;1211;23001;-58
2021/04/08 02:33:33;;;;;;;10.97;6.83;;;;;;;0.23;74.68;98864.11;116850;1212;22912;-58
2021/04/08 02:36:01;;;;;;;12.60;7.30;;;;;;;0.25;74.39;98864.73;117172;1211;22977;-58
2021/04/08 02:38:33;;;;;;;10.50;6.57;;;;;;;0.24;74.65;98868.44;117114;1212;22855;-58
2021/04/08 02:41:04;;;;;;;12.27;7.00;;;;;;;0.25;74.73;98875.45;117184;1211;23639;-59
2021/04/08 02:43:31;;;;;;;10.57;6.70;;;;;;;0.24;73.62;98881.84;117053;1212;22893;-58
2021/04/08 02:45:59;;;;;;;13.55;7.15;;;;;;;0.23;74.24;98885.55;117198;1209;22896;-59
2021/04/08 02:48:26;;;;;;;10.90;7.03;;;;;;;0.21;74.15;98890.28;117113;1209;23947;-59
2021/04/08 02:50:56;;;;;;;14.73;7.27;;;;;;;0.19;74.08;98892.34;117206;1209;23002;-59
2021/04/08 02:53:44;;;;;;;9.25;6.30;;;;;;;0.19;74.78;98903.05;117115;1209;24649;-59
2021/04/08 02:56:16;;;;;;;13.97;7.50;;;;;;;0.18;74.64;98905.94;117255;1209;22814;-59
2021/04/08 02:58:45;;;;;;;13.10;8.10;;;;;;;0.18;74.44;98900.58;117124;1209;23669;-59
2021/04/08 03:01:23;;;;;;;15.20;7.00;;;;;;;0.17;74.51;98909.64;117203;1207;22852;-60
2021/04/08 03:03:52;;;;;;;13.00;7.43;;;;;;;0.16;74.98;98908.81;117104;1209;23353;-60
2021/04/08 03:06:20;;;;;;;11.87;6.70;;;;;;;0.17;74.59;98913.14;117156;1209;22892;-60
2021/04/08 03:08:52;;;;;;;18.70;7.80;;;;;;;0.15;74.51;98917.88;117138;1209;22873;-60
2021/04/08 03:11:26;;;;;;;14.53;7.70;;;;;;;0.16;74.26;98934.77;117218;1209;22948;-60
2021/04/08 03:13:56;;;;;;;16.40;8.27;;;;;;;0.15;74.44;98933.95;117258;1209;22892;-59
2021/04/08 03:16:25;;;;;;;16.20;7.57;;;;;;;0.12;74.17;98934.38;117148;1209;22898;-60
2021/04/08 03:18:55;;;;;;;16.00;8.45;;;;;;;0.12;74.68;98933.56;117242;1209;23032;-60
2021/04/08 03:21:27;;;;;;;14.77;7.77;;;;;;;0.11;74.57;98938.09;117077;1209;22921;-60
2021/04/08 03:23:55;;;;;;;14.13;8.73;;;;;;;0.08;74.44;98941.17;117184;1209;22885;-60
2021/04/08 03:26:24;;;;;;;12.10;6.77;;;;;;;0.09;74.32;98950.03;117125;1209;23012;-66
2021/04/08 03:28:52;;;;;;;14.67;7.87;;;;;;;0.06;74.59;98948.58;117194;1209;23608;-66
2021/04/08 03:31:20;;;;;;;13.90;8.00;;;;;;;0.06;74.77;98961.15;117141;1209;24499;-66
2021/04/08 03:33:48;;;;;;;10.77;7.33;;;;;;;0.05;74.55;98963.00;117158;1209;22826;-66
2021/04/08 03:36:32;;;;;;;10.60;6.67;;;;;;;0.05;74.00;98959.50;117103;1209;25391;-66
2021/04/08 03:38:59;;;;;;;12.53;7.63;;;;;;;0.05;74.75;98960.32;117199;1209;22812;-66
2021/04/08 03:41:27;;;;;;;16.80;8.10;;;;;;;0.06;74.17;98967.33;117101;1209;23822;-66
2021/04/08 03:43:54;;;;;;;14.10;7.00;;;;;;;0.07;74.61;98966.30;117229;1209;22830;-63
2021/04/08 03:46:22;;;;;;;12.50;7.70;;;;;;;0.09;74.55;98979.49;117102;1209;23702;-63
2021/04/08 03:48:49;;;;;;;10.70;7.25;;;;;;;0.08;73.96;98981.34;117222;1209;22946;-63
2021/04/08 03:51:17;;;;;;;13.87;7.93;;;;;;;0.12;74.38;98984.45;117136;1209;22896;-63
2021/04/08 03:53:45;;;;;;;13.77;7.43;;;;;;;0.16;74.26;98985.67;117214;1209;22879;-63
2021/04/08 03:56:12;;;;;;;14.40;7.85;;;;;;;0.22;74.37;98990.22;117111;1209;22934;-63
2021/04/08 03:58:40;;;;;;;12.03;7.27;;;;;;;0.34;74.63;98996.61;117227;1209;22965;-63
2021/04/08 04:01:08;;;;;;;12.20;6.60;;;;;;;0.48;74.49;98984.88;117091;1209;22848;-63
2021/04/08 04:03:36;;;;;;;12.20;8.60;;;;;;;0.70;73.93;98988.17;117202;1209;22935;-66
2021/04/08 04:06:07;;;;;;;15.23;7.83;;;;;;;0.92;74.05;98989.58;115669;1209;26067;-59
2021/04/08 04:08:34;;;;;;;13.00;8.10;;;;;;;1.16;73.42;98988.06;117212;1209;23596;-60
2021/04/08 04:11:02;;;;;;;14.80;8.70;;;;;;;1.41;73.05;98991.73;117181;1207;22810;-60
2021/04/08 04:13:30;;;;;;;12.60;7.80;;;;;;;1.63;72.56;98996.79;117141;1209;23077;-60
2021/04/08 04:15:57;;;;;;;16.35;8.25;;;;;;;1.82;70.90;99001.25;117237;1209;22872;-59
2021/04/08 04:18:26;;;;;;;11.90;7.80;;;;;;;2.02;70.84;99003.84;117114;1209;22860;-60
2021/04/08 04:20:54;;;;;;;14.65;8.20;;;;;;;2.20;70.42;98993.16;117225;1209;22870;-60
2021/04/08 04:23:22;;;;;;;14.27;8.13;;;;;;;2.33;69.92;98995.75;117101;1214;23650;-60
2021/04/08 04:25:50;;;;;;;13.43;9.40;;;;;;;2.47;69.45;98999.99;117222;1209;22884;-60
2021/04/08 04:28:17;;;;;;;13.87;8.83;;;;;;;2.61;69.12;99008.78;117088;1209;22863;-60
2021/04/08 04:30:45;;;;;;;17.50;9.03;;;;;;;2.71;68.14;99017.20;117169;1209;24178;-60
2021/04/08 04:33:14;;;;;;;17.80;9.60;;;;;;;2.77;67.65;99018.99;117125;1209;22977;-59
2021/04/08 04:35:42;;;;;;;22.10;10.30;;;;;;;2.80;67.54;99020.42;117243;1209;22939;-65
2021/04/08 04:38:10;;;;;;;17.50;10.40;;;;;;;2.80;67.63;99026.63;117109;1209;23629;-64
2021/04/08 04:40:37;;;;;;;17.27;10.00;;;;;;;2.79;67.37;99024.16;117198;1209;22919;-65
2021/04/08 04:43:05;;;;;;;15.75;9.90;;;;;;;2.75;67.41;99029.14;117055;1209;22913;-64
2021/04/08 04:45:33;;;;;;;19.30;10.90;;;;;;;2.72;67.55;99034.16;117196;1209;23763;-65
2021/04/08 04:48:00;;;;;;;17.70;9.65;;;;;;;2.71;66.88;99036.03;117130;1209;22877;-65
2021/04/08 04:50:28;;;;;;;17.80;10.50;;;;;;;2.69;67.56;99023.84;117202;1209;22835;-64
2021/04/08 04:52:56;;;;;;;16.00;10.37;;;;;;;2.67;66.95;99033.98;117119;1209;22890;-64
2021/04/08 04:55:24;;;;;;;15.83;9.17;;;;;;;2.65;66.96;99030.69;117215;1209;22800;-64
2021/04/08 04:57:51;;;;;;;17.00;9.30;;;;;;;2.62;66.84;99023.88;117217;1209;23861;-64
2021/04/08 05:00:19;;;;;;;17.50;9.50;;;;;;;2.61;67.62;99032.16;117107;1209;23750;-64
2021/04/08 05:02:49;;;;;;;14.87;8.53;;;;;;;2.62;67.68;99031.12;117176;1209;22880;-64
2021/04/08 05:05:17;;;;;;;17.80;9.40;;;;;;;2.64;67.34;99031.73;117088;1209;22919;-56
2021/04/08 05:07:44;;;;;;;15.00;10.03;;;;;;;2.65;67.49;99028.83;117227;1209;23561;-56
2021/04/08 05:10:12;;;;;;;14.33;9.57;;;;;;;2.65;67.18;99036.89;117113;1209;22842;-56
2021/04/08 05:12:39;;;;;;;14.80;9.30;;;;;;;2.64;67.19;99055.93;117201;1209;22803;-56
2021/04/08 05:15:08;;;;;;;16.70;10.10;;;;;;;2.61;67.59;99050.98;117128;1209;23823;-56
2021/04/08 05:17:35;;;;;;;17.00;9.27;;;;;;;2.60;67.18;99046.67;117208;1209;22840;-55
2021/04/08 05:20:04;;;;;;;17.43;9.73;;;;;;;2.60;67.87;99057.43;117144;1209;23396;-56
2021/04/08 05:22:32;;;;;;;16.80;9.50;;;;;;;2.60;67.79;99060.13;117151;1209;23518;-56
2021/04/08 05:24:59;;;;;;;14.70;9.30;;;;;;;2.60;67.26;99060.91;117112;1209;22826;-57
2021/04/08 05:27:27;;;;;;;14.50;9.47;;;;;;;2.61;68.21;99070.63;117225;1209;23619;-58
2021/04/08 05:29:55;;;;;;;17.05;10.45;;;;;;;2.59;68.15;99061.16;117095;1209;22899;-56
2021/04/08 05:32:23;;;;;;;22.25;13.35;;;;;;;2.57;68.61;99069.44;117217;1209;22806;-57
2021/04/08 05:34:52;;;;;;;15.93;10.23;;;;;;;2.56;67.81;99062.41;117099;1209;23149;-57
2021/04/08 05:37:19;;;;;;;21.30;12.50;;;;;;;2.58;68.54;99065.72;117229;1209;22891;-56
2021/04/08 05:39:47;;;;;;;14.90;9.75;;;;;;;2.61;67.92;99067.94;117133;1209;23634;-57
2021/04/08 05:42:18;;;;;;;16.00;10.55;;;;;;;2.67;68.25;99069.77;117217;1209;22867;-57
2021/04/08 05:44:46;;;;;;;18.33;10.50;;;;;;;2.71;68.86;99083.63;117035;1209;22993;-57
2021/04/08 05:47:13;;;;;;;21.43;11.37;;;;;;;2.73;68.06;99084.23;116902;1209;22867;-57
2021/04/08 05:49:43;;;;;;;17.90;10.30;;;;;;;2.76;68.80;99075.70;117130;1209;22992;-57
2021/04/08 05:52:11;;;;;;;18.60;11.20;;;;;;;2.79;68.73;99084.16;117062;1209;23744;-57
2021/04/08 05:54:38;;;;;;;20.33;11.17;;;;;;;2.78;69.00;99082.52;117185;1209;22879;-56
2021/04/08 05:57:06;;;;;;;17.37;10.37;;;;;;;2.77;68.28;99090.80;117088;1209;22897;-58
2021/04/08 05:59:34;;;;;;;16.00;9.97;;;;;;;2.75;68.18;99087.50;117158;1209;22874;-56
2021/04/08 06:02:01;;;;;;;15.10;10.27;;;;;;;2.76;68.87;99094.53;117085;1209;23884;-57
2021/04/08 06:04:29;;;;;;;18.95;10.85;;;;;;;2.79;68.91;99091.41;117182;1209;22929;-57
2021/04/08 06:06:57;;;;;;;17.50;11.10;;;;;;;2.78;68.58;99103.21;117124;1209;23270;-57
2021/04/08 06:09:25;;;;;;;22.60;11.25;;;;;;;2.74;68.55;99102.02;117263;1209;22789;-57
2021/04/08 06:11:52;;;;;;;21.20;11.75;;;;;;;2.75;69.12;99098.26;117061;1209;23651;-57
2021/04/08 06:14:20;;;;;;;14.95;10.90;;;;;;;2.76;68.67;99105.28;117253;1209;23891;-57
2021/04/08 06:16:48;;;;;;;17.40;13.13;;;;;;;2.75;69.31;99111.70;117059;1209;23719;-57
2021/04/08 06:19:15;;;;;;;19.30;12.55;;;;;;;2.71;68.74;99119.41;117197;1209;22773;-57
2021/04/08 06:21:43;;;;;;;28.30;16.63;;;;;;;2.70;69.19;99116.94;117100;1209;22965;-57
2021/04/08 06:24:11;;;;;;;25.25;14.35;;;;;;;2.66;68.80;99113.84;117171;1209;22822;-57
2021/04/08 06:26:38;;;;;;;31.95;17.65;;;;;;;2.62;69.40;99119.86;117084;1209;23068;-57
2021/04/08 06:29:06;;;;;;;31.25;16.95;;;;;;;2.58;69.03;99129.43;117238;1209;22871;-57
2021/04/08 06:31:49;;;;;;;35.00;16.50;;;;;;;2.47;69.24;99130.91;117082;1209;22927;-57
2021/04/08 06:34:17;;;;;;;35.00;18.77;;;;;;;2.41;69.14;99135.31;117205;1209;23085;-58
2021/04/08 06:39:19;;;;;;;35.20;17.75;;;;;;;2.40;70.79;99138.20;113423;1205;23119;-55
2021/04/08 06:41:47;;;;;;;34.23;19.03;;;;;;;2.41;69.98;99134.48;113497;1209;23140;-56
2021/04/08 06:44:15;;;;;;;27.45;15.95;;;;;;;2.42;70.85;99142.34;117014;1212;23627;-58
2021/04/08 06:46:43;;;;;;;20.50;13.45;;;;;;;2.43;70.04;99141.30;117155;1209;22894;-56
2021/04/08 06:49:23;;;;;;;24.90;14.40;;;;;;;2.44;70.56;99153.70;117093;1209;22843;-56
2021/04/08 06:51:54;;;;;;;32.03;17.23;;;;;;;2.47;69.94;99155.94;117163;1209;22998;-56
2021/04/08 06:54:22;;;;;;;21.77;13.80;;;;;;;2.46;69.72;99167.73;117093;1212;22879;-56
2021/04/08 06:56:50;;;;;;;22.75;13.70;;;;;;;2.48;69.93;99167.52;117189;1210;24172;-56
2021/04/08 06:59:18;;;;;;;17.00;11.95;;;;;;;2.51;70.63;99169.78;117129;1210;22855;-56
2021/04/08 07:01:46;;;;;;;17.00;12.20;;;;;;;2.53;70.39;99174.95;117225;1209;22947;-56
2021/04/08 07:04:14;;;;;;;19.13;12.10;;;;;;;2.55;70.76;99176.39;117089;1208;22971;-56
2021/04/08 07:06:42;;;;;;;20.27;12.53;;;;;;;2.58;70.41;99170.59;117227;1209;22856;-56
2021/04/08 07:09:12;;;;;;;17.65;12.55;;;;;;;2.61;70.23;99172.00;117086;1212;23029;-56
2021/04/08 07:11:41;;;;;;;19.00;11.23;;;;;;;2.66;70.60;99175.70;117785;1206;22816;-56
2021/04/08 07:14:10;;;;;;;17.65;11.90;;;;;;;2.73;70.44;99178.38;117575;1206;22946;-56
2021/04/08 07:16:38;;;;;;;20.10;12.20;;;;;;;2.75;71.22;99173.58;117731;1205;23545;-56
2021/04/08 07:19:06;;;;;;;17.60;12.23;;;;;;;2.80;70.76;99176.45;117624;1206;23736;-56
2021/04/08 07:21:36;;;;;;;19.20;11.93;;;;;;;2.87;70.75;99182.63;117775;1206;22819;-57
2021/04/08 07:24:13;;;;;;;16.95;11.70;;;;;;;2.93;71.09;99178.23;117672;1206;22858;-56
2021/04/08 07:27:01;;;;;;;19.70;13.20;;;;;;;2.96;71.08;99186.70;117720;1206;22910;-56
2021/04/08 07:29:40;;;;;;;26.43;16.57;;;;;;;3.02;70.71;99187.71;117605;1205;22867;-56
2021/04/08 07:32:09;;;;;;;19.60;12.20;;;;;;;3.04;70.09;99196.37;117687;1205;24981;-56
2021/04/08 07:34:38;;;;;;;17.13;11.20;;;;;;;3.04;69.93;99199.88;117681;1206;23526;-56
2021/04/08 07:37:06;;;;;;;17.33;12.40;;;;;;;3.05;70.44;99200.70;117680;1206;23584;-56
2021/04/08 07:39:53;;;;;;;18.35;12.30;;;;;;;3.06;69.92;99203.19;117618;1206;22973;-56
2021/04/08 07:42:29;;;;;;;18.87;11.50;;;;;;;3.10;70.63;99215.18;117438;1209;22990;-56
2021/04/08 07:45:03;;;;;;;21.93;13.67;;;;;;;3.14;69.65;99213.70;117305;1211;23089;-56
2021/04/08 07:47:40;;;;;;;29.30;17.30;;;;;;;2.98;69.56;99186.48;113496;1209;24757;-58
2021/04/08 07:50:11;;;;;;;23.70;15.00;;;;;;;3.16;69.69;99224.27;117255;1208;22946;-58
2021/04/08 07:52:40;;;;;;;21.13;14.53;;;;;;;3.16;70.44;99221.57;117355;1209;23024;-58
2021/04/08 07:55:16;;;;;;;21.05;13.30;;;;;;;3.18;70.42;99219.46;117287;1209;22922;-58
2021/04/08 07:57:59;;;;;;;18.30;12.60;;;;;;;3.25;69.93;99230.20;117332;1209;23084;-58
2021/04/08 08:00:36;;;;;;;18.50;11.75;;;;;;;3.30;70.22;99227.69;117198;1208;22995;-58
2021/04/08 08:03:08;;;;;;;19.40;13.63;;;;;;;3.36;70.12;99234.88;117339;1212;23059;-58
2021/04/08 08:05:42;;;;;;;21.15;13.00;;;;;;;3.42;70.13;99221.38;117232;1209;22964;-58
2021/04/08 08:08:09;;;;;;;19.80;13.00;;;;;;;3.47;69.74;99218.83;117381;1209;22896;-58
2021/04/08 08:10:39;;;;;;;16.40;11.00;;;;;;;3.57;69.09;99229.13;117284;1209;22850;-59
2021/04/08 08:13:08;;;;;;;19.90;12.95;;;;;;;3.61;68.48;99230.31;117515;1212;22925;-58
2021/04/08 08:15:40;;;;;;;18.35;13.05;;;;;;;3.65;68.57;99230.70;117682;1211;22982;-58
2021/04/08 08:18:24;;;;;;;21.80;12.50;;;;;;;3.73;68.52;99235.83;117416;1206;24568;-58
2021/04/08 08:21:02;;;;;;;22.30;12.60;;;;;;;3.82;68.68;99229.93;117509;1206;23448;-58
2021/04/08 08:23:34;;;;;;;18.17;12.47;;;;;;;3.90;68.84;99226.94;117628;1212;22896;-58
2021/04/08 08:26:24;;;;;;;28.60;16.50;;;;;;;3.99;67.73;99230.19;117642;1204;23754;-58
2021/04/08 08:28:52;;;;;;;28.80;16.00;;;;;;;3.96;67.19;99233.33;117826;1212;22940;-58
2021/04/08 08:31:58;;;;;;;20.90;13.60;;;;;;;3.97;68.27;99232.28;117615;1206;24051;-58
2021/04/08 08:34:52;;;;;;;16.20;11.00;;;;;;;4.11;68.31;99232.97;117197;1209;23748;-58
2021/04/08 08:37:20;;;;;;;20.50;12.60;;;;;;;4.20;67.05;99231.61;117048;1209;22997;-58
2021/04/08 08:39:50;;;;;;;21.50;15.00;;;;;;;4.25;67.22;99235.30;117210;1209;22874;-58
2021/04/08 08:42:21;;;;;;;25.35;16.15;;;;;;;4.30;65.90;99244.60;117053;1209;23163;-58
2021/04/08 08:44:49;;;;;;;22.85;13.45;;;;;;;4.31;65.69;99236.29;117234;1209;22915;-58
2021/04/08 08:47:21;;;;;;;26.10;15.00;;;;;;;4.34;65.75;99243.08;117055;1209;23508;-58
2021/04/08 08:49:55;;;;;;;21.95;13.30;;;;;;;4.41;66.27;99244.67;117200;1209;22841;-58
2021/04/08 08:52:27;;;;;;;14.80;10.20;;;;;;;4.51;66.15;99242.27;117017;1209;25540;-59
2021/04/08 08:54:55;;;;;;;19.17;11.50;;;;;;;4.62;65.36;99252.29;117182;1209;22851;-58
2021/04/08 08:57:22;;;;;;;20.07;11.10;;;;;;;4.74;64.54;99244.28;117050;1209;22870;-57
2021/04/08 08:59:51;;;;;;;17.05;10.40;;;;;;;4.81;63.59;99254.98;117172;1212;22864;-56
2021/04/08 09:02:20;;;;;;;18.40;11.30;;;;;;;4.86;63.63;99252.44;117211;1209;23501;-56
2021/04/08 09:04:47;;;;;;;16.67;10.47;;;;;;;4.91;63.49;99249.86;117076;1209;22947;-58
2021/04/08 09:07:16;;;;;;;18.25;11.30;;;;;;;4.97;63.09;99257.05;117241;1209;22934;-58
2021/04/08 09:09:47;;;;;;;15.10;9.85;;;;;;;5.01;63.56;99258.25;117145;1206;23825;-58
2021/04/08 09:12:17;;;;;;;16.95;10.15;;;;;;;5.07;63.57;99257.32;117683;1206;22880;-58
2021/04/08 09:14:48;;;;;;;13.30;9.20;;;;;;;5.13;62.49;99258.30;117585;1212;22943;-58
2021/04/08 09:17:43;;;;;;;14.27;7.90;;;;;;;5.15;61.53;99259.72;117542;1209;24111;-56
2021/04/08 09:20:12;;;;;;;13.45;8.45;;;;;;;5.17;60.73;99264.89;117599;1206;22823;-56
2021/04/08 09:22:57;;;;;;;14.70;9.40;;;;;;;5.16;60.71;99264.07;117746;1206;22884;-56
2021/04/08 09:25:32;;;;;;;18.95;11.40;;;;;;;5.18;59.35;99267.37;117495;1211;22903;-56
2021/04/08 09:28:05;;;;;;;17.40;9.40;;;;;;;5.20;59.43;99261.71;117693;1208;22954;-56
2021/04/08 09:31:03;;;;;;;14.65;9.00;;;;;;;5.22;59.15;99257.73;117596;1206;22908;-57
2021/04/08 09:34:00;;;;;;;14.05;8.00;;;;;;;5.26;59.81;99263.50;117758;1210;22832;-56
2021/04/08 09:36:38;;;;;;;11.70;7.40;;;;;;;5.30;59.98;99265.53;117723;1206;23653;-56
2021/04/08 09:39:05;;;;;;;19.77;9.63;;;;;;;5.36;58.66;99266.47;117388;1209;26420;-56
2021/04/08 09:41:51;;;;;;;14.25;8.25;;;;;;;5.39;57.48;99266.01;117682;1206;23641;-56
2021/04/08 09:44:19;;;;;;;14.67;8.80;;;;;;;5.39;58.23;99274.12;117558;1206;23170;-56
2021/04/08 09:46:55;;;;;;;11.45;7.75;;;;;;;5.39;57.12;99271.41;117467;1206;23750;-57
2021/04/08 09:49:41;;;;;;;10.70;7.65;;;;;;;5.39;57.55;99270.59;117610;1211;22895;-57
2021/04/08 09:52:09;;;;;;;11.75;6.85;;;;;;;5.44;58.00;99270.73;117546;1207;22926;-57
2021/04/08 09:54:53;;;;;;;11.10;6.25;;;;;;;5.53;57.79;99269.34;117584;1206;23006;-57
2021/04/08 09:57:33;;;;;;;13.97;7.33;;;;;;;5.63;57.21;99275.81;117684;1211;22876;-57
2021/04/08 10:00:01;;;;;;;10.33;6.83;;;;;;;5.71;57.37;99271.97;117382;1206;23929;-57
2021/04/08 10:02:39;;;;;;;12.33;7.35;;;;;;;5.80;57.19;99270.55;117702;1208;22890;-56
2021/04/08 10:05:11;;;;;;;11.75;7.05;;;;;;;5.90;57.10;99276.27;117587;1206;22960;-56
2021/04/08 10:08:05;;;;;;;9.85;7.30;;;;;;;6.00;56.75;99271.09;117761;1211;23114;-56
2021/04/08 10:10:36;;;;;;;10.90;6.45;;;;;;;6.09;56.49;99276.95;117665;1206;22952;-56
2021/04/08 10:13:13;;;;;;;9.10;6.20;;;;;;;6.10;56.59;99264.26;117714;1206;23590;-57
2021/04/08 10:15:45;;;;;;;10.90;6.25;;;;;;;6.14;56.18;99262.73;117597;1206;23741;-56
2021/04/08 10:18:27;;;;;;;11.40;6.00;;;;;;;6.26;55.42;99275.20;117760;1212;23021;-56
2021/04/08 10:20:59;;;;;;;11.85;7.30;;;;;;;6.32;53.83;99284.27;117638;1209;22871;-57
2021/04/08 10:23:43;;;;;;;9.00;6.25;;;;;;;6.33;52.81;99292.15;117790;1212;22915;-56
2021/04/08 10:26:15;;;;;;;9.23;5.87;;;;;;;6.31;53.73;99288.03;117585;1206;23816;-57
2021/04/08 10:28:48;;;;;;;8.13;6.13;;;;;;;6.33;54.25;99286.73;117676;1206;22843;-57
2021/04/08 10:31:29;;;;;;;10.17;6.33;;;;;;;6.35;54.26;99294.59;117679;1206;23567;-57
2021/04/08 10:34:03;;;;;;;8.85;5.50;;;;;;;6.35;52.97;99289.18;117803;1210;22964;-57
2021/04/08 10:36:35;;;;;;;10.85;5.60;;;;;;;6.33;52.90;99281.33;117632;1206;22934;-57
2021/04/08 10:39:06;;;;;;;6.53;4.90;;;;;;;6.33;51.91;99289.45;117713;1206;22991;-57
2021/04/08 10:41:34;;;;;;;10.30;5.65;;;;;;;6.30;51.56;99287.20;117615;1206;23934;-57
2021/04/08 10:44:26;;;;;;;8.35;6.00;;;;;;;6.29;51.38;99284.73;117785;1206;22933;-58
2021/04/08 10:46:59;;;;;;;8.50;5.10;;;;;;;6.26;51.66;99285.20;117638;1207;22956;-56
2021/04/08 10:49:31;;;;;;;8.25;5.50;;;;;;;6.26;51.71;99286.02;117732;1206;23025;-56
2021/04/08 10:52:06;;;;;;;15.05;5.15;;;;;;;6.31;51.74;99296.97;117294;1206;22997;-56
2021/04/08 10:54:35;;;;;;;12.13;5.23;;;;;;;6.33;50.71;99297.56;117787;1206;22839;-57
2021/04/08 10:57:03;;;;;;;10.20;5.30;;;;;;;6.29;50.60;99290.97;117631;1210;22999;-57
2021/04/08 10:59:31;;;;;;;11.00;5.20;;;;;;;6.24;50.64;99296.25;117368;1206;22870;-56
2021/04/08 11:02:00;;;;;;;9.10;5.10;;;;;;;6.22;50.10;99300.24;117617;1206;22881;-57
2021/04/08 11:04:28;;;;;;;7.53;4.47;;;;;;;6.19;50.79;99296.16;117229;1206;22911;-57
2021/04/08 11:06:57;;;;;;;9.93;5.40;;;;;;;6.21;51.25;99296.72;114731;1206;23476;-53
2021/04/08 11:09:25;;;;;;;11.60;5.80;;;;;;;6.24;52.18;99298.13;117513;1212;23644;-56
2021/04/08 11:11:53;;;;;;;13.25;6.55;;;;;;;6.24;51.67;99293.55;117580;1206;22964;-56
2021/04/08 11:14:22;;;;;;;13.70;6.30;;;;;;;6.26;51.75;99296.02;117478;1206;22899;-56
2021/04/08 11:16:52;;;;;;;15.15;9.25;;;;;;;6.28;51.41;99297.44;117657;1206;22882;-56
2021/04/08 11:19:21;;;;;;;20.60;9.20;;;;;;;6.35;52.06;99297.30;117267;1210;23011;-57
2021/04/08 11:21:49;;;;;;;18.50;8.00;;;;;;;6.41;51.44;99288.25;117645;1206;23364;-56
2021/04/08 11:24:18;;;;;;;13.15;7.55;;;;;;;6.48;51.96;99296.26;117036;1209;22829;-56
2021/04/08 11:26:52;;;;;;;21.45;7.90;;;;;;;6.56;51.51;99296.70;117164;1209;23002;-56
2021/04/08 11:29:24;;;;;;;14.50;7.30;;;;;;;6.63;51.03;99289.30;117083;1212;22888;-56
2021/04/08 11:32:04;;;;;;;12.40;6.20;;;;;;;6.72;51.22;99292.45;117247;1208;22941;-56
2021/04/08 11:34:41;;;;;;;14.40;6.30;;;;;;;6.80;51.14;99296.66;117196;1209;22893;-56
2021/04/08 11:37:09;;;;;;;17.40;8.65;;;;;;;6.85;50.11;99294.89;117339;1212;22925;-58
2021/04/08 11:39:37;;;;;;;13.50;7.10;;;;;;;6.89;49.57;99295.23;116985;1209;23486;-58
2021/04/08 11:42:23;;;;;;;9.80;6.30;;;;;;;6.88;49.84;99299.83;117154;1208;22955;-58
2021/04/08 11:44:52;;;;;;;15.30;8.35;;;;;;;6.86;49.24;99301.95;117175;1209;24138;-58